Molina De Aragon, Spain
Current Conditions -  °F | °C
As of 12:00 AM on Wednesday 22 Oct 2014 (Local Time) from LETL Reporting Station
Clear Clear  
Wind Chill: 61°   Ceiling: Unl
Heat Index: 61°   Visibility: 6mi
Dew Point: 43°   Wind: 10mph
Humidity: 52%   Direction: 320°NW
Pressure: 30.36"   Gusts: NA
Location:  40.84°N, 1.88°W
Report Text: LETL 212200Z AUTO 32009KT CAVOK 16/06 Q1028
Loading
Personal Weather Stations






























Interactive Weather Map
Tropical Storm Tracking
New forecast layout! Learn more

10-Day Weather Forecast

Advertisements
Track Severe Weather on mobile